EXS35AJ EGBB-LGSK
Flight info
| Callsign | EXS35AJ |
|---|---|
| Flight time | N/A |
| Altitude | 35000 |
| Route | COWLY Q70 BIG UL9 KONAN UL607 REMBA DCT LIRSU DCT ULNOK DCT VIBOM DCT NOMBO DCT RIDAR DCT RADIZ DCT NEMEK/N0441F370 DCT ETOBI DCT MEDUX UM867 KOGAT DCT ERANA UL737 TSL UL617 IBIDI |
| Aircraft | A321/M-SDE3FGHIRWY/LB1 |
Departure
| Time | 2026-05-06 06:37 |
|---|---|
| Airport | Birmingham Airport (EGBB) |
Arrival
| Time | N/A |
|---|---|
| Airport | Skiathos Island National Airport (LGSK) |
| Time | Latitude | Longitude | Altitude | Speed | Heading |
|---|---|---|---|---|---|
| 2026-05-06 05:47 | 52.44991 | -1.73429 | 324 ft | 0 kts | 326° |
| 2026-05-06 06:24 | 52.44979 | -1.73415 | 323 ft | 2 kts | 326° |
| 2026-05-06 06:24 | 52.44963 | -1.73392 | 323 ft | 4 kts | 290° |
| 2026-05-06 06:24 | 52.44964 | -1.73355 | 322 ft | 4 kts | 239° |
| 2026-05-06 06:25 | 52.44966 | -1.73351 | 321 ft | 4 kts | 236° |
| 2026-05-06 06:25 | 52.44958 | -1.73369 | 323 ft | 0 kts | 236° |
| 2026-05-06 06:28 | 52.44949 | -1.73391 | 322 ft | 6 kts | 236° |
| 2026-05-06 06:28 | 52.44927 | -1.73445 | 322 ft | 7 kts | 236° |
| 2026-05-06 06:28 | 52.44901 | -1.73516 | 323 ft | 8 kts | 250° |
| 2026-05-06 06:28 | 52.44877 | -1.73606 | 321 ft | 9 kts | 236° |
| 2026-05-06 06:29 | 52.44835 | -1.73680 | 323 ft | 9 kts | 206° |
| 2026-05-06 06:29 | 52.44772 | -1.73711 | 324 ft | 10 kts | 197° |
| 2026-05-06 06:29 | 52.44706 | -1.73722 | 323 ft | 9 kts | 160° |
| 2026-05-06 06:29 | 52.44646 | -1.73658 | 322 ft | 11 kts | 145° |
| 2026-05-06 06:30 | 52.44581 | -1.73584 | 323 ft | 13 kts | 145° |
| 2026-05-06 06:31 | 52.44561 | -1.73562 | 322 ft | 13 kts | 145° |
| 2026-05-06 06:32 | 52.44554 | -1.73553 | 323 ft | 13 kts | 145° |
| 2026-05-06 06:32 | 52.44478 | -1.73467 | 323 ft | 10 kts | 146° |
| 2026-05-06 06:32 | 52.44428 | -1.73413 | 324 ft | 8 kts | 148° |
| 2026-05-06 06:32 | 52.44379 | -1.73415 | 323 ft | 7 kts | 214° |
| 2026-05-06 06:33 | 52.44354 | -1.73471 | 324 ft | 8 kts | 235° |
| 2026-05-06 06:33 | 52.44326 | -1.73536 | 325 ft | 6 kts | 235° |
| 2026-05-06 06:33 | 52.44311 | -1.73605 | 323 ft | 5 kts | 291° |
| 2026-05-06 06:33 | 52.44322 | -1.73621 | 323 ft | 0 kts | 325° |
| 2026-05-06 06:34 | 52.44325 | -1.73624 | 324 ft | 6 kts | 325° |
| 2026-05-06 06:34 | 52.44575 | -1.73900 | 325 ft | 79 kts | 326° |
| 2026-05-06 06:35 | 52.45202 | -1.74596 | 329 ft | 136 kts | 326° |
| 2026-05-06 06:35 | 52.45634 | -1.75073 | 330 ft | 158 kts | 324° |
| 2026-05-06 06:36 | 52.45645 | -1.75085 | 328 ft | 159 kts | 324° |
| 2026-05-06 06:36 | 52.46569 | -1.76120 | 918 ft | 159 kts | 328° |
| 2026-05-06 06:37 | 52.47486 | -1.77140 | 1665 ft | 159 kts | 330° |
| 2026-05-06 06:37 | 52.48416 | -1.78169 | 2227 ft | 168 kts | 331° |
| 2026-05-06 06:37 | 52.49536 | -1.78938 | 2497 ft | 184 kts | 359° |
| 2026-05-06 06:37 | 52.50805 | -1.78363 | 2706 ft | 202 kts | 35° |
| 2026-05-06 06:38 | 52.51844 | -1.76611 | 2919 ft | 229 kts | 54° |
| 2026-05-06 06:38 | 52.52749 | -1.74337 | 3516 ft | 244 kts | 56° |
| 2026-05-06 06:38 | 52.53592 | -1.71873 | 4303 ft | 254 kts | 69° |
| 2026-05-06 06:38 | 52.53735 | -1.68946 | 5074 ft | 267 kts | 98° |
| 2026-05-06 06:39 | 52.53011 | -1.66133 | 5792 ft | 279 kts | 124° |
| 2026-05-06 06:39 | 52.51547 | -1.63962 | 6560 ft | 285 kts | 151° |
| 2026-05-06 06:39 | 52.49785 | -1.62523 | 7313 ft | 288 kts | 155° |
| 2026-05-06 06:39 | 52.47968 | -1.61101 | 8081 ft | 291 kts | 155° |
| 2026-05-06 06:40 | 52.46103 | -1.59654 | 8857 ft | 294 kts | 155° |
| 2026-05-06 06:40 | 52.44243 | -1.58211 | 9620 ft | 298 kts | 155° |
| 2026-05-06 06:40 | 52.42356 | -1.56741 | 10261 ft | 305 kts | 154° |
| 2026-05-06 06:40 | 52.40394 | -1.55211 | 10425 ft | 328 kts | 154° |
| 2026-05-06 06:41 | 52.38267 | -1.53550 | 10611 ft | 347 kts | 154° |
| 2026-05-06 06:41 | 52.36063 | -1.51825 | 11161 ft | 354 kts | 154° |
| 2026-05-06 06:41 | 52.33831 | -1.50076 | 11789 ft | 358 kts | 155° |
| 2026-05-06 06:41 | 52.31575 | -1.48313 | 12462 ft | 361 kts | 155° |
| 2026-05-06 06:42 | 52.29296 | -1.46535 | 13132 ft | 365 kts | 155° |
| 2026-05-06 06:42 | 52.26993 | -1.44744 | 13805 ft | 368 kts | 155° |
| 2026-05-06 06:42 | 52.24673 | -1.42943 | 14441 ft | 370 kts | 155° |
| 2026-05-06 06:42 | 52.22333 | -1.41131 | 15019 ft | 374 kts | 155° |
| 2026-05-06 06:43 | 52.19978 | -1.39306 | 15653 ft | 376 kts | 155° |
| 2026-05-06 06:43 | 52.17611 | -1.37467 | 16266 ft | 379 kts | 156° |
| 2026-05-06 06:43 | 52.15222 | -1.35612 | 16868 ft | 381 kts | 156° |
| 2026-05-06 06:43 | 52.12820 | -1.33751 | 17441 ft | 384 kts | 156° |
| 2026-05-06 06:44 | 52.10390 | -1.31874 | 18016 ft | 388 kts | 156° |
| 2026-05-06 06:44 | 52.07943 | -1.29993 | 18544 ft | 391 kts | 156° |
| 2026-05-06 06:44 | 52.05478 | -1.28102 | 19054 ft | 393 kts | 156° |
| 2026-05-06 06:44 | 52.02996 | -1.26196 | 19570 ft | 395 kts | 156° |
| 2026-05-06 06:45 | 52.00507 | -1.24286 | 20065 ft | 398 kts | 156° |
| 2026-05-06 06:45 | 51.97992 | -1.22358 | 20541 ft | 401 kts | 156° |
| 2026-05-06 06:45 | 51.95467 | -1.20419 | 21026 ft | 403 kts | 156° |
| 2026-05-06 06:45 | 51.92925 | -1.18470 | 21511 ft | 405 kts | 156° |
| 2026-05-06 06:46 | 51.90367 | -1.16510 | 21992 ft | 408 kts | 156° |
| 2026-05-06 06:46 | 51.87797 | -1.14539 | 22462 ft | 410 kts | 156° |
| 2026-05-06 06:46 | 51.85206 | -1.12556 | 22933 ft | 412 kts | 156° |
| 2026-05-06 06:46 | 51.82604 | -1.10571 | 23385 ft | 415 kts | 156° |
| 2026-05-06 06:47 | 51.79982 | -1.08580 | 23769 ft | 418 kts | 156° |
| 2026-05-06 06:47 | 51.77342 | -1.06583 | 24117 ft | 420 kts | 156° |
| 2026-05-06 06:47 | 51.74684 | -1.04574 | 24487 ft | 422 kts | 156° |
| 2026-05-06 06:47 | 51.72020 | -1.02560 | 24845 ft | 425 kts | 156° |
| 2026-05-06 06:48 | 51.69331 | -1.00530 | 25216 ft | 427 kts | 156° |
| 2026-05-06 06:48 | 51.66636 | -0.98497 | 25586 ft | 429 kts | 156° |
| 2026-05-06 06:48 | 51.63925 | -0.96448 | 25928 ft | 432 kts | 155° |
| 2026-05-06 06:48 | 51.61327 | -0.93994 | 26343 ft | 434 kts | 146° |
| 2026-05-06 06:49 | 51.59023 | -0.90851 | 26737 ft | 437 kts | 135° |
| 2026-05-06 06:49 | 51.57085 | -0.87085 | 27090 ft | 440 kts | 125° |
| 2026-05-06 06:49 | 51.55575 | -0.82785 | 27450 ft | 443 kts | 115° |
| 2026-05-06 06:49 | 51.54395 | -0.78198 | 27791 ft | 445 kts | 113° |
| 2026-05-06 06:50 | 51.53221 | -0.73582 | 28143 ft | 447 kts | 113° |
| 2026-05-06 06:50 | 51.52034 | -0.68954 | 28471 ft | 449 kts | 114° |
| 2026-05-06 06:50 | 51.50836 | -0.64311 | 28787 ft | 451 kts | 114° |
| 2026-05-06 06:50 | 51.49631 | -0.59645 | 29115 ft | 453 kts | 114° |
| 2026-05-06 06:51 | 51.48417 | -0.54966 | 29414 ft | 455 kts | 114° |
| 2026-05-06 06:51 | 51.47196 | -0.50265 | 29719 ft | 457 kts | 114° |
| 2026-05-06 06:51 | 51.45968 | -0.45550 | 30020 ft | 459 kts | 114° |
| 2026-05-06 06:51 | 51.44735 | -0.40815 | 30280 ft | 461 kts | 114° |
| 2026-05-06 06:52 | 51.43517 | -0.36132 | 30574 ft | 462 kts | 114° |
| 2026-05-06 06:52 | 51.42283 | -0.31389 | 30961 ft | 461 kts | 114° |
| 2026-05-06 06:52 | 51.41046 | -0.26654 | 31315 ft | 460 kts | 114° |
| 2026-05-06 06:52 | 51.39804 | -0.21936 | 31674 ft | 460 kts | 113° |
| 2026-05-06 06:53 | 51.38560 | -0.17223 | 32020 ft | 460 kts | 113° |
| 2026-05-06 06:53 | 51.37312 | -0.12511 | 32376 ft | 459 kts | 113° |
| 2026-05-06 06:53 | 51.36066 | -0.07808 | 32757 ft | 458 kts | 113° |
| 2026-05-06 06:53 | 51.34827 | -0.03124 | 33111 ft | 458 kts | 113° |
| 2026-05-06 06:54 | 51.33608 | 0.01576 | 33435 ft | 458 kts | 110° |
| 2026-05-06 06:54 | 51.32961 | 0.04855 | 33665 ft | 458 kts | 104° |
| 2026-05-06 06:54 | 51.32126 | 0.11443 | 34179 ft | 456 kts | 101° |
| 2026-05-06 06:54 | 51.31732 | 0.14742 | 34352 ft | 457 kts | 101° |
| 2026-05-06 06:55 | 51.31126 | 0.19730 | 34566 ft | 458 kts | 101° |
| 2026-05-06 06:55 | 51.30511 | 0.24714 | 34879 ft | 457 kts | 101° |
| 2026-05-06 06:55 | 51.29889 | 0.29695 | 35050 ft | 458 kts | 102° |
| 2026-05-06 06:56 | 51.28651 | 0.39602 | 35101 ft | 452 kts | 101° |
| 2026-05-06 06:56 | 51.27428 | 0.49443 | 35102 ft | 452 kts | 101° |
| 2026-05-06 06:57 | 51.26201 | 0.59242 | 35087 ft | 450 kts | 101° |
| 2026-05-06 06:57 | 51.24958 | 0.69020 | 35062 ft | 449 kts | 102° |
| 2026-05-06 06:58 | 51.23714 | 0.78789 | 35026 ft | 449 kts | 102° |
| 2026-05-06 06:58 | 51.22468 | 0.88547 | 34996 ft | 449 kts | 102° |
| 2026-05-06 06:59 | 51.21199 | 0.98297 | 34950 ft | 449 kts | 102° |
| 2026-05-06 06:59 | 51.19941 | 1.07981 | 34952 ft | 449 kts | 102° |
| 2026-05-06 07:00 | 51.18672 | 1.17711 | 34951 ft | 448 kts | 102° |
| 2026-05-06 07:00 | 51.17390 | 1.27440 | 34951 ft | 448 kts | 102° |
| 2026-05-06 07:01 | 51.16211 | 1.37184 | 34945 ft | 448 kts | 95° |
| 2026-05-06 07:01 | 51.15736 | 1.47072 | 34948 ft | 448 kts | 95° |
| 2026-05-06 07:02 | 51.15257 | 1.56954 | 34948 ft | 447 kts | 95° |
| 2026-05-06 07:02 | 51.14768 | 1.66822 | 34948 ft | 446 kts | 95° |
| 2026-05-06 07:03 | 51.14280 | 1.76672 | 34940 ft | 446 kts | 95° |
| 2026-05-06 07:03 | 51.13779 | 1.86512 | 34936 ft | 446 kts | 95° |
| 2026-05-06 07:04 | 51.13267 | 1.96349 | 34934 ft | 445 kts | 95° |
| 2026-05-06 07:04 | 51.12756 | 2.06152 | 34938 ft | 444 kts | 95° |
| 2026-05-06 07:05 | 51.12237 | 2.15928 | 34932 ft | 443 kts | 95° |
| 2026-05-06 07:05 | 51.11706 | 2.25628 | 34928 ft | 442 kts | 95° |
| 2026-05-06 07:06 | 51.11168 | 2.35367 | 34918 ft | 442 kts | 95° |
| 2026-05-06 07:06 | 51.10621 | 2.45108 | 34935 ft | 441 kts | 95° |
| 2026-05-06 07:07 | 51.10069 | 2.54820 | 34915 ft | 440 kts | 95° |
| 2026-05-06 07:07 | 51.09461 | 2.64502 | 34912 ft | 439 kts | 100° |
| 2026-05-06 07:08 | 51.07911 | 2.73888 | 34903 ft | 439 kts | 106° |
| 2026-05-06 07:08 | 51.06214 | 2.83207 | 34900 ft | 439 kts | 107° |
| 2026-05-06 07:09 | 51.04513 | 2.92527 | 34887 ft | 439 kts | 106° |
| 2026-05-06 07:09 | 51.02808 | 3.01854 | 34882 ft | 440 kts | 106° |
| 2026-05-06 07:10 | 51.01090 | 3.11194 | 34881 ft | 440 kts | 107° |
| 2026-05-06 07:10 | 50.99365 | 3.20519 | 34882 ft | 441 kts | 107° |
| 2026-05-06 07:11 | 50.97639 | 3.29791 | 34878 ft | 441 kts | 107° |
| 2026-05-06 07:11 | 50.95881 | 3.39181 | 34868 ft | 442 kts | 107° |
| 2026-05-06 07:12 | 50.94128 | 3.48524 | 34867 ft | 443 kts | 107° |
| 2026-05-06 07:12 | 50.92366 | 3.57886 | 34865 ft | 443 kts | 107° |
| 2026-05-06 07:13 | 50.90601 | 3.67175 | 34870 ft | 443 kts | 107° |
| 2026-05-06 07:13 | 50.88804 | 3.76518 | 34867 ft | 444 kts | 108° |
| 2026-05-06 07:14 | 50.86994 | 3.85843 | 34895 ft | 443 kts | 108° |
| 2026-05-06 07:14 | 50.85181 | 3.95145 | 34893 ft | 441 kts | 108° |
| 2026-05-06 07:15 | 50.83368 | 4.04420 | 34892 ft | 441 kts | 108° |
| 2026-05-06 07:15 | 50.81552 | 4.13672 | 34884 ft | 440 kts | 108° |
| 2026-05-06 07:16 | 50.79731 | 4.22922 | 34872 ft | 440 kts | 108° |
| 2026-05-06 07:16 | 50.77904 | 4.32162 | 34859 ft | 441 kts | 108° |
| 2026-05-06 07:17 | 50.76060 | 4.41399 | 34858 ft | 441 kts | 108° |
| 2026-05-06 07:17 | 50.74207 | 4.50637 | 34859 ft | 442 kts | 108° |
| 2026-05-06 07:18 | 50.72341 | 4.59879 | 34859 ft | 442 kts | 109° |
| 2026-05-06 07:18 | 50.70531 | 4.69072 | 34843 ft | 442 kts | 108° |
| 2026-05-06 07:19 | 50.68756 | 4.78354 | 34838 ft | 442 kts | 108° |
| 2026-05-06 07:19 | 50.66967 | 4.87632 | 34835 ft | 443 kts | 108° |
| 2026-05-06 07:20 | 50.64661 | 4.96662 | 34838 ft | 441 kts | 117° |
| 2026-05-06 07:20 | 50.62044 | 5.05335 | 34847 ft | 441 kts | 117° |
| 2026-05-06 07:21 | 50.59409 | 5.14064 | 34836 ft | 442 kts | 117° |
| 2026-05-06 07:21 | 50.56772 | 5.22780 | 34803 ft | 441 kts | 117° |
| 2026-05-06 07:22 | 50.54126 | 5.31493 | 34804 ft | 442 kts | 117° |
| 2026-05-06 07:22 | 50.51474 | 5.40203 | 34798 ft | 442 kts | 117° |
| 2026-05-06 07:23 | 50.49206 | 5.49186 | 34789 ft | 445 kts | 111° |
| 2026-05-06 07:23 | 50.46443 | 5.57833 | 34779 ft | 445 kts | 118° |
| 2026-05-06 07:24 | 50.43841 | 5.66668 | 34789 ft | 446 kts | 116° |
| 2026-05-06 07:24 | 50.41169 | 5.75432 | 34816 ft | 444 kts | 118° |
| 2026-05-06 07:25 | 50.38377 | 5.84050 | 34818 ft | 443 kts | 119° |
| 2026-05-06 07:25 | 50.35593 | 5.92649 | 34812 ft | 442 kts | 118° |
| 2026-05-06 07:26 | 50.32844 | 6.01269 | 34803 ft | 442 kts | 118° |
| 2026-05-06 07:26 | 50.30105 | 6.09877 | 34790 ft | 442 kts | 118° |
| 2026-05-06 07:27 | 50.27371 | 6.18412 | 34792 ft | 442 kts | 119° |
| 2026-05-06 07:27 | 50.24609 | 6.26985 | 34768 ft | 442 kts | 119° |
| 2026-05-06 07:28 | 50.21840 | 6.35550 | 34763 ft | 442 kts | 119° |
| 2026-05-06 07:28 | 50.18103 | 6.48709 | 34730 ft | 446 kts | 106° |
| 2026-05-06 07:29 | 50.16584 | 6.58104 | 34732 ft | 447 kts | 106° |
| 2026-05-06 07:29 | 50.15045 | 6.67522 | 34738 ft | 448 kts | 107° |
| 2026-05-06 07:30 | 50.13493 | 6.76937 | 34744 ft | 449 kts | 107° |
| 2026-05-06 07:30 | 50.11935 | 6.86354 | 34747 ft | 449 kts | 107° |
| 2026-05-06 07:31 | 50.10369 | 6.95774 | 34736 ft | 449 kts | 107° |
| 2026-05-06 07:31 | 50.08784 | 7.05202 | 34743 ft | 450 kts | 107° |
| 2026-05-06 07:32 | 50.07189 | 7.14624 | 34750 ft | 450 kts | 107° |
| 2026-05-06 07:32 | 50.05595 | 7.24049 | 34783 ft | 450 kts | 107° |
| 2026-05-06 07:33 | 50.03996 | 7.33472 | 34765 ft | 450 kts | 108° |
| 2026-05-06 07:33 | 50.02387 | 7.42882 | 34776 ft | 450 kts | 108° |
| 2026-05-06 07:34 | 50.00767 | 7.52284 | 34756 ft | 450 kts | 108° |
| 2026-05-06 07:34 | 49.99142 | 7.61679 | 34764 ft | 450 kts | 108° |
| 2026-05-06 07:35 | 49.97509 | 7.71069 | 34775 ft | 450 kts | 108° |
| 2026-05-06 07:35 | 49.95288 | 7.80034 | 34761 ft | 442 kts | 123° |
| 2026-05-06 07:36 | 49.92208 | 7.88304 | 34752 ft | 443 kts | 124° |
| 2026-05-06 07:36 | 49.88906 | 7.96366 | 34752 ft | 443 kts | 128° |
| 2026-05-06 07:37 | 49.85401 | 8.04217 | 34760 ft | 443 kts | 128° |
| 2026-05-06 07:37 | 49.81890 | 8.12070 | 34764 ft | 444 kts | 128° |
| 2026-05-06 07:38 | 49.78424 | 8.19994 | 34761 ft | 445 kts | 128° |
| 2026-05-06 07:38 | 49.74990 | 8.27886 | 34755 ft | 446 kts | 128° |
| 2026-05-06 07:39 | 49.71512 | 8.35826 | 34768 ft | 446 kts | 128° |
| 2026-05-06 07:39 | 49.68009 | 8.43763 | 34799 ft | 447 kts | 128° |
| 2026-05-06 07:40 | 49.64507 | 8.51682 | 34799 ft | 447 kts | 129° |
| 2026-05-06 07:40 | 49.60999 | 8.59595 | 34813 ft | 446 kts | 129° |
| 2026-05-06 07:41 | 49.57489 | 8.67479 | 34815 ft | 446 kts | 129° |
| 2026-05-06 07:41 | 49.53975 | 8.75354 | 34816 ft | 446 kts | 129° |
| 2026-05-06 07:42 | 49.50460 | 8.83207 | 34817 ft | 445 kts | 129° |
| 2026-05-06 07:42 | 49.46941 | 8.91047 | 34813 ft | 445 kts | 129° |
| 2026-05-06 07:43 | 49.43419 | 8.98870 | 34800 ft | 445 kts | 129° |
| 2026-05-06 07:43 | 49.39897 | 9.06673 | 34808 ft | 444 kts | 130° |
| 2026-05-06 07:44 | 49.36379 | 9.14451 | 34815 ft | 443 kts | 130° |
| 2026-05-06 07:44 | 49.33461 | 9.20886 | 34820 ft | 441 kts | 130° |
| 2026-05-06 07:45 | 49.29956 | 9.28595 | 34820 ft | 440 kts | 130° |
| 2026-05-06 07:45 | 49.25886 | 9.37510 | 34803 ft | 439 kts | 130° |
| 2026-05-06 07:46 | 49.22955 | 9.43925 | 34809 ft | 439 kts | 130° |
| 2026-05-06 07:46 | 49.19442 | 9.51561 | 34816 ft | 439 kts | 131° |
| 2026-05-06 07:47 | 49.15930 | 9.59180 | 34820 ft | 438 kts | 130° |
| 2026-05-06 07:47 | 49.12416 | 9.66798 | 34824 ft | 438 kts | 131° |
| 2026-05-06 07:48 | 49.08919 | 9.74351 | 34815 ft | 438 kts | 131° |
| 2026-05-06 07:48 | 49.05396 | 9.81944 | 34787 ft | 439 kts | 131° |
| 2026-05-06 07:49 | 49.01856 | 9.89557 | 34789 ft | 441 kts | 131° |
| 2026-05-06 07:49 | 48.98302 | 9.97174 | 34793 ft | 441 kts | 131° |
| 2026-05-06 07:50 | 48.94736 | 10.04779 | 34797 ft | 442 kts | 131° |
| 2026-05-06 07:50 | 48.91166 | 10.12390 | 34806 ft | 442 kts | 131° |
| 2026-05-06 07:51 | 48.87583 | 10.19995 | 34782 ft | 443 kts | 131° |
| 2026-05-06 07:51 | 48.83983 | 10.27614 | 34793 ft | 445 kts | 132° |
| 2026-05-06 07:52 | 48.80362 | 10.35254 | 34800 ft | 446 kts | 132° |
| 2026-05-06 07:52 | 48.76734 | 10.42907 | 34810 ft | 448 kts | 132° |
| 2026-05-06 07:53 | 48.73097 | 10.50577 | 34785 ft | 448 kts | 132° |
| 2026-05-06 07:53 | 48.69444 | 10.58218 | 34798 ft | 448 kts | 132° |
| 2026-05-06 07:54 | 48.65780 | 10.65857 | 34813 ft | 449 kts | 132° |
| 2026-05-06 07:54 | 48.62131 | 10.73447 | 34826 ft | 449 kts | 132° |
| 2026-05-06 07:55 | 48.58451 | 10.81065 | 34842 ft | 449 kts | 133° |
| 2026-05-06 07:55 | 48.54604 | 10.88444 | 34813 ft | 446 kts | 136° |
| 2026-05-06 07:56 | 48.50637 | 10.95630 | 34831 ft | 445 kts | 137° |
| 2026-05-06 07:56 | 48.46683 | 11.02817 | 34833 ft | 446 kts | 136° |
| 2026-05-06 07:57 | 48.42760 | 11.10056 | 34839 ft | 446 kts | 136° |
| 2026-05-06 07:57 | 48.38849 | 11.17292 | 34842 ft | 446 kts | 136° |
| 2026-05-06 07:58 | 48.34928 | 11.24505 | 34808 ft | 445 kts | 136° |
| 2026-05-06 07:58 | 48.30998 | 11.31684 | 34825 ft | 444 kts | 136° |
| 2026-05-06 07:59 | 48.27072 | 11.38845 | 34835 ft | 444 kts | 137° |
| 2026-05-06 07:59 | 48.23144 | 11.45990 | 34839 ft | 443 kts | 137° |
| 2026-05-06 08:00 | 48.19223 | 11.53120 | 34837 ft | 443 kts | 137° |
| 2026-05-06 08:00 | 48.15299 | 11.60234 | 34813 ft | 443 kts | 137° |
| 2026-05-06 08:01 | 48.11370 | 11.67323 | 34824 ft | 442 kts | 137° |
| 2026-05-06 08:01 | 48.07439 | 11.74405 | 34829 ft | 442 kts | 137° |
| 2026-05-06 08:02 | 48.03513 | 11.81474 | 34820 ft | 442 kts | 137° |
| 2026-05-06 08:02 | 47.99581 | 11.88523 | 34823 ft | 442 kts | 137° |
| 2026-05-06 08:03 | 47.95638 | 11.95561 | 34795 ft | 442 kts | 137° |
| 2026-05-06 08:03 | 47.91695 | 12.02585 | 34800 ft | 442 kts | 137° |
| 2026-05-06 08:04 | 47.87777 | 12.09566 | 34806 ft | 442 kts | 137° |
| 2026-05-06 08:04 | 47.83825 | 12.16576 | 34812 ft | 442 kts | 137° |
| 2026-05-06 08:05 | 47.79840 | 12.23620 | 34820 ft | 442 kts | 137° |
| 2026-05-06 08:05 | 47.75900 | 12.30566 | 34830 ft | 442 kts | 138° |
| 2026-05-06 08:06 | 47.71938 | 12.37535 | 34837 ft | 441 kts | 137° |
| 2026-05-06 08:06 | 47.67982 | 12.44490 | 34837 ft | 440 kts | 137° |
| 2026-05-06 08:07 | 47.64026 | 12.51424 | 34836 ft | 440 kts | 137° |
| 2026-05-06 08:07 | 47.59821 | 12.57876 | 34836 ft | 433 kts | 143° |
| 2026-05-06 08:08 | 47.55464 | 12.64037 | 34805 ft | 433 kts | 144° |
| 2026-05-06 08:08 | 47.51107 | 12.70180 | 34800 ft | 433 kts | 144° |
| 2026-05-06 08:09 | 47.46730 | 12.76346 | 34981 ft | 437 kts | 144° |
| 2026-05-06 08:09 | 47.44528 | 12.79442 | 35231 ft | 437 kts | 144° |
| 2026-05-06 08:09 | 47.42326 | 12.82534 | 35509 ft | 437 kts | 144° |
| 2026-05-06 08:10 | 47.40127 | 12.85623 | 35784 ft | 437 kts | 143° |
| 2026-05-06 08:10 | 47.37922 | 12.88715 | 36049 ft | 437 kts | 143° |
| 2026-05-06 08:10 | 47.35722 | 12.91800 | 36279 ft | 437 kts | 143° |
| 2026-05-06 08:10 | 47.33520 | 12.94877 | 36518 ft | 436 kts | 143° |
| 2026-05-06 08:11 | 47.31313 | 12.97951 | 36737 ft | 436 kts | 143° |
| 2026-05-06 08:11 | 47.29106 | 13.01025 | 36839 ft | 438 kts | 143° |
| 2026-05-06 08:11 | 47.24696 | 13.07169 | 36852 ft | 440 kts | 143° |
| 2026-05-06 08:12 | 47.20208 | 13.13400 | 36877 ft | 441 kts | 143° |
| 2026-05-06 08:12 | 47.15773 | 13.19521 | 36880 ft | 440 kts | 143° |
| 2026-05-06 08:13 | 47.11318 | 13.25699 | 36893 ft | 440 kts | 143° |
| 2026-05-06 08:13 | 47.06853 | 13.31875 | 36871 ft | 442 kts | 143° |
| 2026-05-06 08:14 | 47.02368 | 13.38047 | 36877 ft | 443 kts | 143° |
| 2026-05-06 08:14 | 46.97863 | 13.44237 | 36890 ft | 445 kts | 143° |
| 2026-05-06 08:15 | 46.93331 | 13.50435 | 36903 ft | 447 kts | 143° |
| 2026-05-06 08:15 | 46.88783 | 13.56640 | 36907 ft | 448 kts | 143° |
| 2026-05-06 08:16 | 46.84225 | 13.62853 | 36890 ft | 448 kts | 143° |
| 2026-05-06 08:16 | 46.79667 | 13.69067 | 36901 ft | 449 kts | 143° |
| 2026-05-06 08:17 | 46.75094 | 13.75278 | 36894 ft | 449 kts | 143° |
| 2026-05-06 08:17 | 46.70512 | 13.81477 | 36906 ft | 450 kts | 144° |
| 2026-05-06 08:18 | 46.65914 | 13.87674 | 36917 ft | 451 kts | 144° |
| 2026-05-06 08:18 | 46.61299 | 13.93871 | 36908 ft | 452 kts | 143° |
| 2026-05-06 08:19 | 46.56678 | 14.00084 | 36907 ft | 453 kts | 143° |
| 2026-05-06 08:19 | 46.52065 | 14.06251 | 36909 ft | 454 kts | 144° |
| 2026-05-06 08:20 | 46.47411 | 14.12474 | 36923 ft | 455 kts | 143° |
| 2026-05-06 08:20 | 46.42757 | 14.18695 | 36933 ft | 456 kts | 143° |
| 2026-05-06 08:21 | 46.38086 | 14.24916 | 36939 ft | 457 kts | 143° |
| 2026-05-06 08:21 | 46.33401 | 14.31128 | 36960 ft | 457 kts | 143° |
| 2026-05-06 08:22 | 46.28701 | 14.37325 | 36973 ft | 457 kts | 143° |
| 2026-05-06 08:22 | 46.24005 | 14.43512 | 36973 ft | 457 kts | 143° |
| 2026-05-06 08:23 | 46.19315 | 14.49701 | 36942 ft | 457 kts | 142° |
| 2026-05-06 08:23 | 46.14622 | 14.55877 | 36978 ft | 456 kts | 142° |
| 2026-05-06 08:24 | 46.09936 | 14.62016 | 36995 ft | 455 kts | 142° |
| 2026-05-06 08:24 | 46.05254 | 14.68142 | 36991 ft | 454 kts | 142° |
| 2026-05-06 08:25 | 46.00579 | 14.74248 | 36992 ft | 454 kts | 143° |
| 2026-05-06 08:25 | 45.95897 | 14.80340 | 36954 ft | 454 kts | 142° |
| 2026-05-06 08:26 | 45.91218 | 14.86409 | 36983 ft | 453 kts | 142° |
| 2026-05-06 08:26 | 45.86547 | 14.92454 | 36989 ft | 452 kts | 142° |
| 2026-05-06 08:27 | 45.81911 | 14.98435 | 36989 ft | 451 kts | 142° |
| 2026-05-06 08:27 | 45.77251 | 15.04443 | 36988 ft | 451 kts | 142° |
| 2026-05-06 08:28 | 45.72594 | 15.10437 | 36973 ft | 449 kts | 142° |
| 2026-05-06 08:28 | 45.67955 | 15.16403 | 36992 ft | 448 kts | 142° |
| 2026-05-06 08:29 | 45.63326 | 15.22337 | 36995 ft | 446 kts | 142° |
| 2026-05-06 08:29 | 45.58704 | 15.28232 | 36995 ft | 445 kts | 142° |
| 2026-05-06 08:30 | 45.54505 | 15.34785 | 36985 ft | 449 kts | 134° |
| 2026-05-06 08:30 | 45.50472 | 15.41590 | 36966 ft | 449 kts | 134° |
| 2026-05-06 08:31 | 45.46429 | 15.48399 | 36963 ft | 450 kts | 134° |
| 2026-05-06 08:31 | 45.42375 | 15.55203 | 36969 ft | 451 kts | 134° |
| 2026-05-06 08:32 | 45.38306 | 15.61993 | 36964 ft | 451 kts | 135° |
| 2026-05-06 08:32 | 45.34263 | 15.68737 | 36950 ft | 451 kts | 135° |
| 2026-05-06 08:33 | 45.30173 | 15.75558 | 36974 ft | 450 kts | 135° |
| 2026-05-06 08:33 | 45.26140 | 15.82266 | 36965 ft | 449 kts | 135° |
| 2026-05-06 08:34 | 45.20048 | 15.92349 | 36969 ft | 449 kts | 135° |
| 2026-05-06 08:35 | 45.15974 | 15.99060 | 36951 ft | 449 kts | 136° |
| 2026-05-06 08:35 | 45.12587 | 16.04642 | 36975 ft | 449 kts | 136° |
| 2026-05-06 08:36 | 45.08518 | 16.11341 | 36972 ft | 449 kts | 136° |
| 2026-05-06 08:36 | 45.04443 | 16.18023 | 36980 ft | 449 kts | 136° |
| 2026-05-06 08:37 | 45.00365 | 16.24689 | 36973 ft | 448 kts | 136° |
| 2026-05-06 08:37 | 44.96280 | 16.31350 | 36942 ft | 449 kts | 136° |
| 2026-05-06 08:38 | 44.92187 | 16.38015 | 36950 ft | 450 kts | 136° |
| 2026-05-06 08:38 | 44.88090 | 16.44682 | 36955 ft | 450 kts | 136° |
| 2026-05-06 08:39 | 44.83981 | 16.51346 | 36963 ft | 450 kts | 136° |
| 2026-05-06 08:39 | 44.79864 | 16.57997 | 36953 ft | 450 kts | 136° |
| 2026-05-06 08:40 | 44.75741 | 16.64642 | 36957 ft | 451 kts | 136° |
| 2026-05-06 08:40 | 44.71608 | 16.71290 | 36949 ft | 452 kts | 136° |
| 2026-05-06 08:41 | 44.67468 | 16.77943 | 36972 ft | 452 kts | 136° |
| 2026-05-06 08:41 | 44.63326 | 16.84588 | 36965 ft | 452 kts | 136° |
| 2026-05-06 08:42 | 44.59176 | 16.91211 | 36963 ft | 452 kts | 136° |
| 2026-05-06 08:42 | 44.55143 | 16.98007 | 36977 ft | 455 kts | 133° |
| 2026-05-06 08:43 | 44.51305 | 17.04988 | 36982 ft | 456 kts | 132° |
| 2026-05-06 08:43 | 44.47435 | 17.12021 | 36979 ft | 455 kts | 133° |
| 2026-05-06 08:44 | 44.43515 | 17.18974 | 36987 ft | 455 kts | 133° |
| 2026-05-06 08:44 | 44.39564 | 17.25894 | 36986 ft | 455 kts | 133° |
| 2026-05-06 08:45 | 44.35605 | 17.32820 | 37002 ft | 456 kts | 133° |
| 2026-05-06 08:45 | 44.31649 | 17.39755 | 37003 ft | 456 kts | 133° |
| 2026-05-06 08:46 | 44.27691 | 17.46684 | 36998 ft | 456 kts | 133° |
| 2026-05-06 08:46 | 44.23750 | 17.53554 | 37008 ft | 457 kts | 133° |
| 2026-05-06 08:47 | 44.19779 | 17.60477 | 37012 ft | 457 kts | 133° |
| 2026-05-06 08:47 | 44.15798 | 17.67385 | 37025 ft | 457 kts | 133° |
| 2026-05-06 08:48 | 44.11806 | 17.74282 | 37015 ft | 457 kts | 133° |
| 2026-05-06 08:48 | 44.07812 | 17.81182 | 37018 ft | 458 kts | 133° |
| 2026-05-06 08:49 | 44.03813 | 17.88081 | 37025 ft | 459 kts | 133° |
| 2026-05-06 08:49 | 43.99806 | 17.94980 | 37032 ft | 459 kts | 133° |
| 2026-05-06 08:50 | 43.95790 | 18.01873 | 37014 ft | 459 kts | 132° |
| 2026-05-06 08:50 | 43.91766 | 18.08754 | 37011 ft | 460 kts | 133° |
| 2026-05-06 08:51 | 43.87729 | 18.15647 | 37010 ft | 460 kts | 133° |
| 2026-05-06 08:51 | 43.83686 | 18.22534 | 37018 ft | 461 kts | 133° |
| 2026-05-06 08:52 | 43.79634 | 18.29420 | 37021 ft | 461 kts | 133° |
| 2026-05-06 08:52 | 43.75579 | 18.36292 | 37022 ft | 461 kts | 133° |
| 2026-05-06 08:53 | 43.71509 | 18.43167 | 37034 ft | 462 kts | 133° |
| 2026-05-06 08:53 | 43.67442 | 18.50026 | 37042 ft | 461 kts | 133° |
| 2026-05-06 08:54 | 43.63368 | 18.56878 | 37038 ft | 461 kts | 133° |
| 2026-05-06 08:54 | 43.59322 | 18.63682 | 37056 ft | 462 kts | 132° |
| 2026-05-06 08:55 | 43.55238 | 18.70536 | 37048 ft | 462 kts | 133° |
| 2026-05-06 08:55 | 43.51146 | 18.77371 | 37056 ft | 462 kts | 133° |
| 2026-05-06 08:56 | 43.47045 | 18.84198 | 37053 ft | 463 kts | 132° |
| 2026-05-06 08:56 | 43.42939 | 18.91022 | 37056 ft | 463 kts | 132° |
| 2026-05-06 08:57 | 43.38829 | 18.97834 | 37049 ft | 463 kts | 132° |
| 2026-05-06 08:57 | 43.34722 | 19.04651 | 37046 ft | 463 kts | 132° |
| 2026-05-06 08:58 | 43.30609 | 19.11460 | 37051 ft | 463 kts | 133° |
| 2026-05-06 08:58 | 43.26480 | 19.18258 | 37052 ft | 464 kts | 132° |
| 2026-05-06 08:59 | 43.22348 | 19.25050 | 37050 ft | 464 kts | 132° |
| 2026-05-06 08:59 | 43.18210 | 19.31837 | 37049 ft | 464 kts | 132° |
| 2026-05-06 09:00 | 43.14064 | 19.38631 | 37053 ft | 465 kts | 132° |
| 2026-05-06 09:00 | 43.09912 | 19.45405 | 37053 ft | 465 kts | 133° |
| 2026-05-06 09:01 | 43.05752 | 19.52170 | 37059 ft | 465 kts | 132° |
| 2026-05-06 09:01 | 43.01614 | 19.58885 | 37058 ft | 465 kts | 132° |
| 2026-05-06 09:02 | 42.97451 | 19.65658 | 37055 ft | 466 kts | 132° |
| 2026-05-06 09:02 | 42.93275 | 19.72421 | 37062 ft | 465 kts | 132° |
| 2026-05-06 09:03 | 42.89098 | 19.79165 | 37069 ft | 465 kts | 132° |
| 2026-05-06 09:03 | 42.84915 | 19.85899 | 37057 ft | 466 kts | 132° |
| 2026-05-06 09:04 | 42.80716 | 19.92633 | 37058 ft | 467 kts | 132° |
| 2026-05-06 09:04 | 42.76507 | 19.99360 | 37068 ft | 467 kts | 132° |
| 2026-05-06 09:05 | 42.72314 | 20.06110 | 37073 ft | 467 kts | 131° |
| 2026-05-06 09:05 | 42.68195 | 20.12943 | 37072 ft | 467 kts | 130° |
| 2026-05-06 09:06 | 42.64090 | 20.19795 | 37066 ft | 467 kts | 131° |
| 2026-05-06 09:06 | 42.59959 | 20.26615 | 37068 ft | 468 kts | 131° |
| 2026-05-06 09:07 | 42.55805 | 20.33417 | 37071 ft | 468 kts | 131° |
| 2026-05-06 09:07 | 42.51665 | 20.40174 | 37074 ft | 469 kts | 131° |
| 2026-05-06 09:08 | 42.47502 | 20.46973 | 37077 ft | 469 kts | 131° |
| 2026-05-06 09:08 | 42.43339 | 20.53779 | 37081 ft | 469 kts | 131° |
| 2026-05-06 09:09 | 42.39167 | 20.60571 | 37081 ft | 469 kts | 131° |
| 2026-05-06 09:09 | 42.34979 | 20.67346 | 37084 ft | 470 kts | 131° |
| 2026-05-06 09:10 | 42.30785 | 20.74125 | 37084 ft | 470 kts | 131° |
| 2026-05-06 09:10 | 42.26594 | 20.80906 | 37093 ft | 470 kts | 131° |
| 2026-05-06 09:11 | 42.22394 | 20.87680 | 37094 ft | 470 kts | 131° |
| 2026-05-06 09:11 | 42.18187 | 20.94429 | 37091 ft | 470 kts | 131° |
| 2026-05-06 09:12 | 42.14000 | 21.01136 | 37092 ft | 470 kts | 131° |
| 2026-05-06 09:12 | 42.09617 | 21.07636 | 37090 ft | 468 kts | 137° |
| 2026-05-06 09:13 | 42.04874 | 21.13669 | 37095 ft | 469 kts | 138° |
| 2026-05-06 09:13 | 42.00119 | 21.19692 | 37084 ft | 469 kts | 137° |
| 2026-05-06 09:14 | 41.95365 | 21.25710 | 37084 ft | 470 kts | 137° |
| 2026-05-06 09:14 | 41.90601 | 21.31727 | 37088 ft | 470 kts | 137° |
| 2026-05-06 09:15 | 41.85837 | 21.37736 | 37090 ft | 470 kts | 138° |
| 2026-05-06 09:15 | 41.81070 | 21.43744 | 37090 ft | 470 kts | 138° |
| 2026-05-06 09:16 | 41.76298 | 21.49748 | 37079 ft | 470 kts | 138° |
| 2026-05-06 09:16 | 41.71520 | 21.55737 | 37080 ft | 471 kts | 138° |
| 2026-05-06 09:17 | 41.66729 | 21.61716 | 37082 ft | 471 kts | 138° |
| 2026-05-06 09:17 | 41.61937 | 21.67687 | 37082 ft | 471 kts | 138° |
| 2026-05-06 09:18 | 41.57145 | 21.73650 | 37091 ft | 471 kts | 138° |
| 2026-05-06 09:18 | 41.52351 | 21.79605 | 37104 ft | 471 kts | 138° |
| 2026-05-06 09:19 | 41.47590 | 21.85516 | 37078 ft | 471 kts | 138° |
| 2026-05-06 09:19 | 41.42780 | 21.91459 | 37082 ft | 471 kts | 138° |
| 2026-05-06 09:20 | 41.37963 | 21.97393 | 37080 ft | 472 kts | 138° |
| 2026-05-06 09:20 | 41.33144 | 22.03330 | 37088 ft | 472 kts | 138° |
| 2026-05-06 09:21 | 41.28317 | 22.09266 | 37082 ft | 472 kts | 138° |
| 2026-05-06 09:21 | 41.23487 | 22.15184 | 37078 ft | 473 kts | 138° |
| 2026-05-06 09:22 | 41.18647 | 22.21100 | 37070 ft | 474 kts | 138° |
| 2026-05-06 09:22 | 41.13743 | 22.26943 | 37074 ft | 474 kts | 141° |
| 2026-05-06 09:23 | 41.08623 | 22.32453 | 37075 ft | 473 kts | 143° |
| 2026-05-06 09:23 | 41.03445 | 22.37837 | 37075 ft | 474 kts | 143° |
| 2026-05-06 09:24 | 40.98286 | 22.43291 | 37066 ft | 474 kts | 142° |
| 2026-05-06 09:24 | 40.92844 | 22.47985 | 37075 ft | 470 kts | 155° |
| 2026-05-06 09:25 | 40.87007 | 22.51898 | 37072 ft | 471 kts | 155° |
| 2026-05-06 09:25 | 40.81155 | 22.55802 | 37066 ft | 472 kts | 155° |
| 2026-05-06 09:26 | 40.75287 | 22.59707 | 36807 ft | 473 kts | 155° |
| 2026-05-06 09:26 | 40.72351 | 22.61659 | 36532 ft | 473 kts | 155° |
| 2026-05-06 09:26 | 40.69410 | 22.63610 | 36276 ft | 473 kts | 155° |
| 2026-05-06 09:26 | 40.66456 | 22.65566 | 35484 ft | 479 kts | 155° |
| 2026-05-06 09:27 | 40.63463 | 22.67545 | 34652 ft | 484 kts | 155° |
| 2026-05-06 09:27 | 40.60434 | 22.69547 | 33681 ft | 491 kts | 155° |
| 2026-05-06 09:27 | 40.57369 | 22.71577 | 32979 ft | 491 kts | 155° |
| 2026-05-06 09:27 | 40.54333 | 22.73590 | 32398 ft | 488 kts | 155° |
| 2026-05-06 09:28 | 40.51302 | 22.75597 | 31787 ft | 486 kts | 155° |
| 2026-05-06 09:28 | 40.48288 | 22.77586 | 31169 ft | 484 kts | 155° |
| 2026-05-06 09:28 | 40.46296 | 22.78897 | 30780 ft | 483 kts | 155° |
| 2026-05-06 09:28 | 40.43299 | 22.80868 | 30165 ft | 481 kts | 155° |
| 2026-05-06 09:29 | 40.40328 | 22.82821 | 29515 ft | 473 kts | 155° |
| 2026-05-06 09:29 | 40.37421 | 22.84731 | 28945 ft | 461 kts | 155° |
| 2026-05-06 09:29 | 40.34590 | 22.86590 | 28376 ft | 449 kts | 155° |
| 2026-05-06 09:29 | 40.31818 | 22.88409 | 27836 ft | 444 kts | 155° |
| 2026-05-06 09:30 | 40.29065 | 22.90212 | 27290 ft | 441 kts | 155° |
| 2026-05-06 09:30 | 40.26330 | 22.91998 | 26769 ft | 438 kts | 155° |
| 2026-05-06 09:30 | 40.23610 | 22.93773 | 26245 ft | 435 kts | 155° |
| 2026-05-06 09:30 | 40.20913 | 22.95533 | 25751 ft | 432 kts | 155° |
| 2026-05-06 09:31 | 40.18230 | 22.97283 | 25248 ft | 429 kts | 154° |
| 2026-05-06 09:31 | 40.15572 | 22.99017 | 24769 ft | 426 kts | 154° |
| 2026-05-06 09:31 | 40.12931 | 23.00737 | 24283 ft | 423 kts | 154° |
| 2026-05-06 09:31 | 40.10308 | 23.02447 | 23795 ft | 420 kts | 154° |
| 2026-05-06 09:32 | 40.07700 | 23.04148 | 23248 ft | 418 kts | 154° |
| 2026-05-06 09:32 | 40.05114 | 23.05831 | 22776 ft | 413 kts | 154° |
| 2026-05-06 09:32 | 40.02551 | 23.07496 | 22282 ft | 409 kts | 154° |
| 2026-05-06 09:32 | 40.00017 | 23.09141 | 21793 ft | 405 kts | 154° |
| 2026-05-06 09:33 | 39.97539 | 23.10751 | 21320 ft | 402 kts | 154° |
| 2026-05-06 09:33 | 39.95043 | 23.12369 | 20818 ft | 400 kts | 154° |
| 2026-05-06 09:33 | 39.92528 | 23.13994 | 20324 ft | 397 kts | 154° |
| 2026-05-06 09:33 | 39.90094 | 23.15565 | 19840 ft | 395 kts | 154° |
| 2026-05-06 09:34 | 39.87640 | 23.17149 | 19349 ft | 393 kts | 154° |
| 2026-05-06 09:34 | 39.85194 | 23.18723 | 18856 ft | 389 kts | 154° |
| 2026-05-06 09:34 | 39.82805 | 23.20262 | 18379 ft | 378 kts | 154° |
| 2026-05-06 09:34 | 39.80459 | 23.21776 | 17876 ft | 375 kts | 154° |
| 2026-05-06 09:35 | 39.78130 | 23.23279 | 17417 ft | 372 kts | 154° |
| 2026-05-06 09:35 | 39.75822 | 23.24771 | 16967 ft | 369 kts | 154° |
| 2026-05-06 09:35 | 39.73533 | 23.26249 | 16513 ft | 366 kts | 154° |
| 2026-05-06 09:35 | 39.71259 | 23.27712 | 16074 ft | 364 kts | 154° |
| 2026-05-06 09:36 | 39.68995 | 23.29163 | 15637 ft | 361 kts | 154° |
| 2026-05-06 09:36 | 39.66753 | 23.30600 | 15202 ft | 359 kts | 154° |
| 2026-05-06 09:36 | 39.64515 | 23.32033 | 14767 ft | 357 kts | 154° |
| 2026-05-06 09:36 | 39.62292 | 23.33457 | 14326 ft | 356 kts | 154° |
| 2026-05-06 09:37 | 39.60078 | 23.34876 | 13890 ft | 354 kts | 154° |
| 2026-05-06 09:37 | 39.57874 | 23.36286 | 13416 ft | 352 kts | 154° |
| 2026-05-06 09:37 | 39.55685 | 23.37683 | 12967 ft | 349 kts | 154° |
| 2026-05-06 09:37 | 39.53525 | 23.39062 | 12531 ft | 342 kts | 154° |
| 2026-05-06 09:38 | 39.51421 | 23.40406 | 12117 ft | 333 kts | 154° |
| 2026-05-06 09:38 | 39.49365 | 23.41722 | 11683 ft | 324 kts | 154° |
| 2026-05-06 09:38 | 39.47355 | 23.43008 | 11276 ft | 321 kts | 154° |
| 2026-05-06 09:38 | 39.45358 | 23.44283 | 10850 ft | 320 kts | 154° |
| 2026-05-06 09:39 | 39.43355 | 23.45557 | 10416 ft | 321 kts | 154° |
| 2026-05-06 09:39 | 39.41359 | 23.46823 | 9982 ft | 318 kts | 154° |
| 2026-05-06 09:39 | 39.39381 | 23.48076 | 9460 ft | 316 kts | 154° |